Time;durP1;ratioP1;P1;durP2;ratioP2;P2;SDS_P1;SDS_P2;PMS_P1;PMS_P2;Temp;Humidity;BMP_temperature;BMP_pressure;BME280_temperature;BME280_humidity;BME280_pressure;Samples;Min_cycle;Max_cycle;Signal;HPM_P1;HPM_P2
2022/11/04 00:02:03;;;;;;;6.70;3.20;;;11.00;99.90;;;;;;5078388;28;20104;-67
2022/11/04 00:04:30;;;;;;;5.13;2.92;;;11.00;99.90;;;;;;5078871;28;20103;-67
2022/11/04 00:06:58;;;;;;;6.55;3.00;;;11.00;99.90;;;;;;5078193;28;20025;-67
2022/11/04 00:09:30;;;;;;;4.93;2.95;;;11.00;99.90;;;;;;5078372;28;20020;-67
2022/11/04 00:14:43;;;;;;;5.63;3.20;;;11.00;99.90;;;;;;5078417;28;20035;-67
2022/11/04 00:17:24;;;;;;;5.95;3.30;;;10.90;99.90;;;;;;5061089;28;20028;-67
2022/11/04 00:33:52;;;;;;;3.85;2.42;;;10.70;99.90;;;;;;5078313;28;20120;-67
2022/11/04 00:36:22;;;;;;;4.97;2.70;;;10.80;99.90;;;;;;5078221;28;20025;-67
2022/11/04 00:38:50;;;;;;;6.10;2.30;;;10.80;99.90;;;;;;5077808;28;20032;-67
2022/11/04 00:41:27;;;;;;;4.90;2.60;;;10.70;99.90;;;;;;5059842;28;20112;-67
2022/11/04 00:43:57;;;;;;;5.72;2.40;;;10.70;99.90;;;;;;5077479;28;20021;-67
2022/11/04 00:46:24;;;;;;;5.40;2.50;;;10.80;99.90;;;;;;5077940;28;20044;-67
2022/11/04 00:48:52;;;;;;;5.47;3.60;;;10.70;99.90;;;;;;5059855;28;20383;-67
2022/11/04 00:51:21;;;;;;;4.95;2.45;;;10.70;99.90;;;;;;5059659;28;20032;-67
2022/11/04 00:53:49;;;;;;;4.55;2.15;;;10.70;99.90;;;;;;5077299;28;20111;-67
2022/11/04 00:56:16;;;;;;;8.85;2.92;;;10.70;99.90;;;;;;5077754;28;20104;-67
2022/11/04 00:58:43;;;;;;;4.80;2.25;;;10.70;99.90;;;;;;5077390;28;20046;-67
2022/11/04 01:01:16;;;;;;;3.75;2.10;;;10.70;99.90;;;;;;5077067;28;20054;-67
2022/11/04 01:03:46;;;;;;;5.88;2.28;;;10.70;99.90;;;;;;5077064;28;20108;-67
2022/11/04 01:06:14;;;;;;;4.93;2.13;;;10.70;99.90;;;;;;5077265;28;20028;-67
2022/11/04 01:08:42;;;;;;;4.25;2.13;;;10.80;99.90;;;;;;5077179;28;20115;-67
2022/11/04 01:11:10;;;;;;;3.20;1.65;;;10.70;99.90;;;;;;5076987;28;20025;-67
2022/11/04 01:13:38;;;;;;;4.35;2.00;;;10.80;99.90;;;;;;5059296;28;20037;-67
2022/11/04 01:16:08;;;;;;;3.05;2.03;;;10.80;99.90;;;;;;5076842;28;20017;-67
2022/11/04 01:18:35;;;;;;;3.72;2.05;;;10.70;99.90;;;;;;5059416;28;20116;-67
2022/11/04 01:21:04;;;;;;;3.35;1.83;;;10.70;99.90;;;;;;5059346;28;20043;-67
2022/11/04 01:23:33;;;;;;;3.10;1.80;;;10.70;99.90;;;;;;5077156;28;20061;-67
2022/11/04 01:26:00;;;;;;;3.70;2.03;;;10.70;99.90;;;;;;5059711;28;20047;-67
2022/11/04 01:28:28;;;;;;;3.10;1.70;;;10.70;99.90;;;;;;5077195;28;20320;-68
2022/11/04 01:30:55;;;;;;;4.20;1.45;;;10.80;99.90;;;;;;5077036;28;20324;-67
2022/11/04 01:33:23;;;;;;;7.35;1.83;;;10.70;99.90;;;;;;5077298;28;20100;-67
2022/11/04 01:35:51;;;;;;;2.92;2.05;;;10.80;99.90;;;;;;5076188;28;20020;-67
2022/11/04 01:38:18;;;;;;;3.45;1.25;;;10.80;99.90;;;;;;5059278;28;20432;-67
2022/11/04 01:40:45;;;;;;;3.38;1.50;;;10.80;99.90;;;;;;5075591;28;20032;-67
2022/11/04 01:43:20;;;;;;;2.42;1.38;;;10.80;99.90;;;;;;5077574;28;20397;-68
2022/11/04 01:46:00;;;;;;;2.85;1.52;;;10.80;99.90;;;;;;5077091;28;20070;-68
2022/11/04 01:48:32;;;;;;;3.45;1.52;;;10.80;99.90;;;;;;5076803;28;20023;-67
2022/11/04 01:51:00;;;;;;;3.08;1.30;;;10.80;99.90;;;;;;5076861;28;20033;-67
2022/11/04 01:53:36;;;;;;;3.25;1.15;;;10.90;99.90;;;;;;5077101;28;20055;-67
2022/11/04 01:56:10;;;;;;;5.82;1.70;;;10.90;99.90;;;;;;5076969;28;20031;-67
2022/11/04 01:58:51;;;;;;;1.92;1.00;;;10.90;99.90;;;;;;5076361;28;20044;-68
2022/11/04 02:01:18;;;;;;;2.67;1.20;;;10.90;99.90;;;;;;5076342;28;20024;-67
2022/11/04 02:03:56;;;;;;;2.03;1.05;;;10.90;99.90;;;;;;5076366;28;20070;-67
2022/11/04 02:06:44;;;;;;;4.13;1.02;;;10.80;99.90;;;;;;5076021;28;20425;-67
2022/11/04 02:09:12;;;;;;;2.55;0.85;;;10.80;99.90;;;;;;5058671;28;20032;-67
2022/11/04 02:14:24;;;;;;;2.33;0.70;;;10.80;99.90;;;;;;5076361;28;20371;-67
2022/11/04 02:17:03;;;;;;;1.25;0.73;;;10.80;99.90;;;;;;5076140;28;20050;-67
2022/11/04 02:19:40;;;;;;;1.45;0.70;;;10.80;99.90;;;;;;5076461;28;20027;-67
2022/11/04 02:22:14;;;;;;;2.63;0.93;;;10.80;99.90;;;;;;5076824;28;20017;-67
2022/11/04 02:25:22;;;;;;;1.25;0.93;;;10.80;99.90;;;;;;5076746;28;20313;-67
2022/11/04 02:28:08;;;;;;;1.55;1.10;;;10.80;99.90;;;;;;5076640;28;20035;-67
2022/11/04 02:30:50;;;;;;;1.60;0.95;;;10.80;99.90;;;;;;5076637;28;20073;-67
2022/11/04 02:33:47;;;;;;;2.00;0.90;;;10.80;99.90;;;;;;5076698;28;20029;-67
2022/11/04 02:36:35;;;;;;;1.95;1.00;;;10.70;99.90;;;;;;5058189;28;20310;-67
2022/11/04 02:39:17;;;;;;;2.10;1.10;;;10.70;99.90;;;;;;5076586;28;20397;-67
2022/11/04 02:42:01;;;;;;;2.50;1.30;;;10.60;99.90;;;;;;5058201;28;20450;-67
2022/11/04 02:44:48;;;;;;;3.88;1.20;;;10.60;99.90;;;;;;5076745;28;20021;-67
2022/11/04 02:47:26;;;;;;;1.98;1.27;;;10.50;99.90;;;;;;5076103;28;20109;-67
2022/11/04 02:50:33;;;;;;;2.97;1.73;;;10.50;99.90;;;;;;5079709;28;20021;-67
2022/11/04 02:53:31;;;;;;;2.93;1.67;;;10.50;99.90;;;;;;5079144;28;20329;-67
2022/11/04 02:56:01;;;;;;;3.00;2.00;;;10.40;99.90;;;;;;5079817;28;20282;-67
2022/11/04 02:58:39;;;;;;;2.92;1.90;;;10.30;99.90;;;;;;5079503;28;20437;-67
2022/11/04 03:01:10;;;;;;;4.03;2.00;;;10.30;99.90;;;;;;5061951;28;20370;-67
2022/11/04 03:03:53;;;;;;;2.40;1.60;;;10.20;99.90;;;;;;5079518;28;20023;-67
2022/11/04 03:06:23;;;;;;;2.58;1.80;;;10.10;99.90;;;;;;5079203;28;20024;-67
2022/11/04 03:08:55;;;;;;;5.35;2.13;;;10.00;99.90;;;;;;5080076;28;20111;-67
2022/11/04 03:11:27;;;;;;;3.15;1.65;;;9.90;99.90;;;;;;5079915;28;20020;-67
2022/11/04 03:13:59;;;;;;;2.72;1.80;;;9.90;99.90;;;;;;5079294;28;20039;-67
2022/11/04 03:16:43;;;;;;;4.72;2.08;;;9.90;99.90;;;;;;5079296;28;20021;-67
2022/11/04 03:19:45;;;;;;;2.70;1.88;;;9.90;99.90;;;;;;5061530;28;20370;-67
2022/11/04 03:22:22;;;;;;;2.92;1.70;;;9.90;99.90;;;;;;5079089;28;20020;-67
2022/11/04 03:24:50;;;;;;;4.57;2.00;;;9.90;99.90;;;;;;5061310;28;20222;-71
2022/11/04 03:27:45;;;;;;;2.92;2.00;;;10.00;99.90;;;;;;5079146;28;20473;-67
2022/11/04 03:30:17;;;;;;;5.10;2.58;;;10.00;99.90;;;;;;5078838;28;20037;-67
2022/11/04 03:32:57;;;;;;;6.53;1.92;;;10.00;99.90;;;;;;5079518;28;20021;-67
2022/11/04 03:35:25;;;;;;;4.78;2.20;;;10.00;99.90;;;;;;5061131;28;20451;-67
2022/11/04 03:37:52;;;;;;;2.80;1.92;;;10.10;99.90;;;;;;5079252;28;20025;-67
2022/11/04 03:40:21;;;;;;;5.55;2.17;;;10.10;99.90;;;;;;5078828;28;20109;-67
2022/11/04 03:43:00;;;;;;;2.50;1.70;;;10.10;99.90;;;;;;5078829;28;20017;-67
2022/11/04 03:45:27;;;;;;;3.50;1.98;;;10.10;99.90;;;;;;5078669;28;20070;-67
2022/11/04 03:47:56;;;;;;;3.08;1.95;;;10.00;99.90;;;;;;5079388;28;20028;-67
2022/11/04 03:50:40;;;;;;;5.32;2.47;;;10.00;99.90;;;;;;5078624;28;20367;-67
2022/11/04 03:53:09;;;;;;;2.95;1.63;;;10.00;99.90;;;;;;5078822;28;20024;-67
2022/11/04 03:56:04;;;;;;;1.90;1.40;;;10.00;99.90;;;;;;5078833;28;20016;-67
2022/11/04 03:59:03;;;;;;;2.95;2.00;;;10.00;99.90;;;;;;5056822;28;20059;-67
2022/11/04 04:01:43;;;;;;;6.10;2.45;;;10.00;99.90;;;;;;5058266;28;20330;-67
2022/11/04 04:04:29;;;;;;;3.03;1.80;;;10.00;99.90;;;;;;5073671;28;20348;-67
2022/11/04 04:07:24;;;;;;;3.85;1.85;;;10.00;99.90;;;;;;5058673;28;20021;-67
2022/11/04 04:10:01;;;;;;;2.72;1.70;;;10.00;99.90;;;;;;5058206;28;20356;-67
2022/11/04 04:12:37;;;;;;;2.83;1.80;;;10.00;99.90;;;;;;5058346;28;20017;-67
2022/11/04 04:15:17;;;;;;;3.15;2.10;;;10.00;99.90;;;;;;5058591;28;20397;-67
2022/11/04 04:18:01;;;;;;;2.55;1.52;;;10.10;99.90;;;;;;5058060;28;20028;-67
2022/11/04 04:20:34;;;;;;;5.68;1.58;;;10.00;99.90;;;;;;5058580;28;20028;-67
2022/11/04 04:28:41;;;;;;;3.20;1.88;;;10.00;99.90;;;;;;5058195;28;20117;-67
2022/11/04 04:31:10;;;;;;;3.30;1.92;;;10.00;99.90;;;;;;5057717;28;20387;-68
2022/11/04 04:33:38;;;;;;;2.75;1.92;;;10.00;99.90;;;;;;5057900;28;20021;-67
2022/11/04 04:36:08;;;;;;;3.40;2.38;;;10.00;99.90;;;;;;5073526;28;20021;-67
2022/11/04 04:47:22;;;;;;;4.20;2.67;;;10.00;99.90;;;;;;5057889;28;20040;-67
2022/11/04 04:49:57;;;;;;;3.95;2.55;;;9.90;99.90;;;;;;5058021;28;20092;-67
2022/11/04 04:52:30;;;;;;;4.90;2.30;;;9.90;99.90;;;;;;5057720;28;20055;-68
2022/11/04 04:54:59;;;;;;;7.85;2.78;;;9.90;99.90;;;;;;5057339;28;20032;-67
2022/11/04 04:57:26;;;;;;;6.15;2.88;;;10.00;99.90;;;;;;5057455;28;20056;-67
2022/11/04 04:59:53;;;;;;;4.50;2.55;;;10.00;99.90;;;;;;5076546;28;20041;-68
2022/11/04 05:02:20;;;;;;;5.38;2.50;;;10.00;99.90;;;;;;5077219;28;20484;-67
2022/11/04 05:04:48;;;;;;;7.75;2.15;;;9.90;99.90;;;;;;5077198;28;20447;-68
2022/11/04 05:07:15;;;;;;;3.28;2.30;;;9.90;99.90;;;;;;5077547;28;20033;-68
2022/11/04 05:09:42;;;;;;;4.28;2.40;;;10.00;99.90;;;;;;5077257;28;20070;-67
2022/11/04 05:12:10;;;;;;;4.82;2.10;;;9.90;99.90;;;;;;5058675;28;20031;-67
2022/11/04 05:14:37;;;;;;;4.63;2.58;;;9.90;99.90;;;;;;5059260;28;20463;-68
2022/11/04 05:17:05;;;;;;;6.40;2.50;;;9.90;99.90;;;;;;5059281;28;20029;-67
2022/11/04 05:19:32;;;;;;;4.15;2.17;;;9.90;99.90;;;;;;5077450;28;20095;-68
2022/11/04 05:21:59;;;;;;;3.72;1.92;;;9.80;99.90;;;;;;5076958;28;20154;-68
2022/11/04 05:24:27;;;;;;;11.48;2.42;;;9.80;99.90;;;;;;5076867;28;20066;-68
2022/11/04 05:26:55;;;;;;;3.50;1.90;;;9.80;99.90;;;;;;5077498;28;20048;-68
2022/11/04 05:29:23;;;;;;;5.03;2.10;;;9.70;99.90;;;;;;5076771;28;20317;-67
2022/11/04 05:31:50;;;;;;;2.38;1.70;;;9.70;99.90;;;;;;5076729;28;20032;-68
2022/11/04 05:34:18;;;;;;;5.32;1.85;;;9.80;99.90;;;;;;5058943;28;20162;-68
2022/11/04 05:36:45;;;;;;;6.20;1.63;;;9.80;99.90;;;;;;5077339;28;20024;-68
2022/11/04 05:39:13;;;;;;;3.78;1.73;;;9.80;99.90;;;;;;5077188;28;20021;-68
2022/11/04 05:41:41;;;;;;;3.53;1.70;;;9.80;99.90;;;;;;5076684;28;20086;-68
2022/11/04 05:44:09;;;;;;;4.10;2.13;;;9.80;99.90;;;;;;5076618;28;20096;-68
2022/11/04 05:46:38;;;;;;;5.10;1.85;;;9.80;99.90;;;;;;5058773;28;20035;-68
2022/11/04 05:49:05;;;;;;;2.85;1.77;;;9.80;99.90;;;;;;5076542;28;20035;-67
2022/11/04 05:51:33;;;;;;;3.55;1.80;;;9.90;99.90;;;;;;5077084;28;20028;-68
2022/11/04 05:54:01;;;;;;;4.65;2.05;;;9.80;99.90;;;;;;5076478;28;20028;-67
2022/11/04 05:56:28;;;;;;;3.25;1.83;;;9.80;99.90;;;;;;5058582;28;20443;-67
2022/11/04 05:58:56;;;;;;;5.38;2.08;;;9.90;99.90;;;;;;5076424;28;20048;-68
2022/11/04 06:01:34;;;;;;;6.57;2.03;;;9.90;99.90;;;;;;5076362;28;20012;-67
2022/11/04 06:04:02;;;;;;;4.97;2.20;;;9.80;99.90;;;;;;5076411;28;20297;-67
2022/11/04 06:06:32;;;;;;;2.60;1.35;;;9.80;99.90;;;;;;5059043;28;20024;-67
2022/11/04 06:09:00;;;;;;;6.10;2.25;;;9.90;99.90;;;;;;5076522;28;20029;-68
2022/11/04 06:11:29;;;;;;;4.65;2.53;;;9.80;99.90;;;;;;5076626;28;20360;-68
2022/11/04 06:13:57;;;;;;;9.68;2.22;;;9.90;99.90;;;;;;5076625;28;20075;-69
2022/11/04 06:16:25;;;;;;;5.43;2.10;;;9.80;99.90;;;;;;5076199;28;20024;-70
2022/11/04 06:18:53;;;;;;;8.85;2.40;;;9.80;99.90;;;;;;5076418;28;20020;-69
2022/11/04 06:21:25;;;;;;;3.38;2.40;;;9.80;99.90;;;;;;5076174;28;20020;-70
2022/11/04 06:23:55;;;;;;;6.40;2.40;;;9.80;99.90;;;;;;5080265;28;20027;-70
2022/11/04 06:26:24;;;;;;;6.18;2.83;;;9.80;99.90;;;;;;5080214;28;20029;-70
2022/11/04 06:28:51;;;;;;;4.60;2.05;;;9.80;99.90;;;;;;5062560;28;20028;-70
2022/11/04 06:31:19;;;;;;;9.30;2.95;;;9.80;99.90;;;;;;5080033;28;20017;-70
2022/11/04 06:33:47;;;;;;;6.45;2.35;;;9.80;99.90;;;;;;5080087;28;20027;-70
2022/11/04 06:36:16;;;;;;;8.02;3.00;;;9.80;99.90;;;;;;5062825;28;20025;-70
2022/11/04 06:38:43;;;;;;;9.02;3.00;;;9.70;99.90;;;;;;5080388;28;20056;-70
2022/11/04 06:41:16;;;;;;;5.97;2.63;;;9.70;99.90;;;;;;5079915;28;20059;-70
2022/11/04 06:43:44;;;;;;;7.85;2.80;;;9.70;99.90;;;;;;5062166;28;20095;-70
2022/11/04 06:46:33;;;;;;;7.78;2.97;;;9.70;99.90;;;;;;5062443;28;20023;-70
2022/11/04 06:49:01;;;;;;;6.25;2.90;;;9.60;99.90;;;;;;5079973;28;20040;-70
2022/11/04 06:51:29;;;;;;;5.38;3.05;;;9.60;99.90;;;;;;5080256;28;20036;-71
2022/11/04 06:53:56;;;;;;;11.50;3.88;;;9.60;99.90;;;;;;5062004;28;20031;-69
2022/11/04 06:56:24;;;;;;;8.40;3.03;;;9.60;99.90;;;;;;5079533;28;20090;-69
2022/11/04 06:58:53;;;;;;;4.65;2.83;;;9.60;99.90;;;;;;5079681;28;20123;-70
2022/11/04 07:01:22;;;;;;;7.63;2.53;;;9.70;99.90;;;;;;5079769;28;20024;-70
2022/11/04 07:03:59;;;;;;;10.27;3.38;;;9.70;99.90;;;;;;5079560;28;20420;-70
2022/11/04 07:06:29;;;;;;;6.43;2.45;;;9.70;99.90;;;;;;5061970;28;20053;-69
2022/11/04 07:08:58;;;;;;;7.90;2.13;;;9.80;99.90;;;;;;5080142;28;20028;-69
2022/11/04 07:11:28;;;;;;;6.38;2.60;;;9.80;99.90;;;;;;5079346;28;20424;-69
2022/11/04 07:13:55;;;;;;;5.10;2.80;;;9.80;99.90;;;;;;5061539;28;20035;-69
2022/11/04 07:16:24;;;;;;;8.15;3.13;;;9.80;99.90;;;;;;5061490;28;20021;-70
2022/11/04 07:18:52;;;;;;;4.90;2.17;;;9.80;99.90;;;;;;5081763;28;20082;-70
2022/11/04 07:21:20;;;;;;;10.23;2.38;;;9.80;99.90;;;;;;5079071;28;20318;-69
2022/11/04 07:23:47;;;;;;;2.60;1.67;;;9.80;99.90;;;;;;5079158;28;20051;-70
2022/11/04 07:26:14;;;;;;;6.38;2.33;;;9.80;99.90;;;;;;5079412;28;20055;-70
2022/11/04 07:28:41;;;;;;;10.05;2.85;;;9.90;99.90;;;;;;5079261;28;20063;-70
2022/11/04 07:31:12;;;;;;;6.82;2.42;;;9.90;99.90;;;;;;5079385;28;20082;-70
2022/11/04 07:33:39;;;;;;;9.85;3.42;;;9.90;99.90;;;;;;5078198;28;20440;-70
2022/11/04 07:36:12;;;;;;;4.80;2.40;;;9.90;99.90;;;;;;5078771;28;20029;-70
2022/11/04 07:38:39;;;;;;;9.15;2.30;;;9.90;99.90;;;;;;5079627;28;20409;-70
2022/11/04 07:41:07;;;;;;;9.77;3.08;;;9.90;99.90;;;;;;5078859;28;20100;-70
2022/11/04 07:43:34;;;;;;;6.28;3.28;;;10.00;99.90;;;;;;5079113;28;20309;-70
2022/11/04 07:46:04;;;;;;;5.93;2.35;;;10.00;99.90;;;;;;5078835;28;20017;-69
2022/11/04 07:48:32;;;;;;;7.57;3.00;;;10.00;99.90;;;;;;5079173;28;20027;-70
2022/11/04 07:51:00;;;;;;;5.70;2.72;;;10.00;99.90;;;;;;5078965;28;20424;-70
2022/11/04 07:53:29;;;;;;;6.82;2.78;;;10.00;99.90;;;;;;5078662;28;20050;-70
2022/11/04 07:55:58;;;;;;;9.70;3.22;;;9.90;99.90;;;;;;5078615;28;20021;-70
2022/11/04 07:58:25;;;;;;;6.60;2.70;;;9.90;99.90;;;;;;5078409;28;20054;-70
2022/11/04 08:01:04;;;;;;;8.73;3.75;;;9.90;99.90;;;;;;5079449;28;20348;-70
2022/11/04 08:03:35;;;;;;;10.35;2.67;;;9.90;99.90;;;;;;5078358;28;20420;-70
2022/11/04 08:06:06;;;;;;;7.25;2.70;;;9.90;99.90;;;;;;5079201;28;20029;-70
2022/11/04 08:08:34;;;;;;;7.93;2.78;;;9.90;99.90;;;;;;5078460;28;20027;-70
2022/11/04 08:11:06;;;;;;;6.28;3.00;;;10.00;99.90;;;;;;5078227;28;20121;-69
2022/11/04 08:13:36;;;;;;;8.55;3.33;;;10.00;99.90;;;;;;5078267;28;20123;-70
2022/11/04 08:16:08;;;;;;;7.38;2.97;;;10.00;99.90;;;;;;5078198;28;20016;-69
2022/11/04 08:18:36;;;;;;;8.00;3.58;;;9.90;99.90;;;;;;5078302;28;20367;-70
2022/11/04 08:21:03;;;;;;;7.50;3.30;;;9.90;99.90;;;;;;5077815;28;20023;-70
2022/11/04 08:23:31;;;;;;;6.85;3.05;;;9.80;99.90;;;;;;5060990;28;20044;-70
2022/11/04 08:25:58;;;;;;;7.63;2.70;;;9.70;99.90;;;;;;5078280;28;20012;-70
2022/11/04 08:28:26;;;;;;;12.00;3.33;;;9.70;99.90;;;;;;5060415;28;20021;-70
2022/11/04 08:31:03;;;;;;;10.90;2.95;;;9.60;99.90;;;;;;5077800;28;20031;-69
2022/11/04 08:33:32;;;;;;;9.68;2.53;;;9.50;99.90;;;;;;5077869;28;20012;-70
2022/11/04 08:36:12;;;;;;;5.07;2.28;;;9.60;99.90;;;;;;5078306;28;20201;-70
2022/11/04 08:38:39;;;;;;;8.95;2.40;;;9.50;99.90;;;;;;5077921;28;20044;-70
2022/11/04 08:41:09;;;;;;;6.43;3.13;;;9.50;99.90;;;;;;5077678;28;20027;-70
2022/11/04 08:43:37;;;;;;;11.07;2.65;;;9.60;99.90;;;;;;5077681;28;20021;-70
2022/11/04 08:46:06;;;;;;;10.50;3.20;;;9.60;99.90;;;;;;5076527;28;20017;-70
2022/11/04 08:48:35;;;;;;;10.70;3.00;;;9.70;99.90;;;;;;5059992;28;20051;-70
2022/11/04 08:51:06;;;;;;;6.80;2.40;;;9.70;99.90;;;;;;5078036;28;20020;-70
2022/11/04 08:53:33;;;;;;;8.98;2.35;;;9.80;99.90;;;;;;5059784;28;20021;-70
2022/11/04 08:56:09;;;;;;;8.70;2.35;;;9.90;99.90;;;;;;5077949;28;20074;-70
2022/11/04 08:58:36;;;;;;;8.27;2.22;;;10.00;99.90;;;;;;5078106;28;20051;-70
2022/11/04 09:01:09;;;;;;;8.18;2.10;;;10.10;99.90;;;;;;5077177;28;20060;-70
2022/11/04 09:03:38;;;;;;;6.00;1.73;;;10.20;99.90;;;;;;5077184;28;20424;-70
2022/11/04 09:06:08;;;;;;;6.68;1.63;;;10.30;99.90;;;;;;5077376;28;20347;-70
2022/11/04 09:08:38;;;;;;;7.85;1.70;;;10.40;99.90;;;;;;5076254;28;20450;-70
2022/11/04 09:11:10;;;;;;;5.43;1.50;;;10.60;99.90;;;;;;5077078;28;20024;-70
2022/11/04 09:13:38;;;;;;;3.17;1.67;;;10.70;99.90;;;;;;5076994;28;20067;-69
2022/11/04 09:16:07;;;;;;;7.90;1.67;;;10.70;99.90;;;;;;5059140;28;20024;-69
2022/11/04 09:18:35;;;;;;;7.43;1.48;;;10.80;99.90;;;;;;5077150;28;20471;-69
2022/11/04 09:21:04;;;;;;;8.52;1.80;;;10.80;99.90;;;;;;5077447;28;20013;-69
2022/11/04 09:23:32;;;;;;;7.47;2.42;;;10.70;99.90;;;;;;5077201;28;20067;-69
2022/11/04 09:26:06;;;;;;;3.88;1.40;;;10.70;99.90;;;;;;5076753;28;20418;-70
2022/11/04 09:28:34;;;;;;;7.65;1.60;;;10.70;99.90;;;;;;5076895;28;20131;-70
2022/11/04 09:31:10;;;;;;;6.10;1.30;;;10.80;99.90;;;;;;5077238;28;20405;-69
2022/11/04 09:33:38;;;;;;;5.07;1.45;;;10.80;99.90;;;;;;5076765;28;20099;-70
2022/11/04 09:36:07;;;;;;;5.03;1.30;;;10.90;99.90;;;;;;5077212;28;20017;-69
2022/11/04 09:38:37;;;;;;;4.60;1.33;;;10.90;99.90;;;;;;5077416;28;20019;-69
2022/11/04 09:41:26;;;;;;;5.97;1.40;;;11.00;99.90;;;;;;5058841;28;20031;-68
2022/11/04 09:44:05;;;;;;;2.50;1.30;;;11.00;99.90;;;;;;5077191;28;20016;-70
2022/11/04 09:46:34;;;;;;;6.53;1.13;;;11.10;99.90;;;;;;5076521;28;20020;-69
2022/11/04 09:49:05;;;;;;;7.15;1.17;;;11.20;99.90;;;;;;5076724;28;20504;-70
2022/11/04 09:51:33;;;;;;;4.75;2.10;;;11.20;99.90;;;;;;5076787;28;20109;-69
2022/11/04 09:54:09;;;;;;;7.75;1.10;;;11.30;99.90;;;;;;5076446;28;20032;-68
2022/11/04 09:56:43;;;;;;;5.57;1.70;;;11.50;99.90;;;;;;5076036;28;20031;-70
2022/11/04 09:59:19;;;;;;;6.45;1.17;;;11.50;99.90;;;;;;5076275;28;20510;-70
2022/11/04 10:02:03;;;;;;;11.18;2.15;;;11.60;99.90;;;;;;5076990;28;20013;-70
2022/11/04 10:05:01;;;;;;;5.28;1.50;;;11.60;99.90;;;;;;5076430;28;20032;-69
2022/11/04 10:08:04;;;;;;;8.48;1.40;;;11.70;99.90;;;;;;5076572;28;20032;-69
2022/11/04 10:10:34;;;;;;;10.23;1.70;;;11.70;99.90;;;;;;5076641;28;20040;-70
2022/11/04 10:13:27;;;;;;;6.03;1.30;;;11.70;99.90;;;;;;5076917;28;20025;-68
2022/11/04 10:15:58;;;;;;;11.55;1.92;;;11.60;99.90;;;;;;5077054;28;20359;-70
2022/11/04 10:18:49;;;;;;;4.07;1.27;;;11.50;99.90;;;;;;5076958;28;20305;-70
2022/11/04 10:21:52;;;;;;;5.07;1.50;;;11.50;99.90;;;;;;5076181;28;20056;-73
2022/11/04 10:25:03;;;;;;;5.38;1.55;;;11.40;99.90;;;;;;5075857;28;20021;-69
2022/11/04 10:27:36;;;;;;;8.10;1.40;;;11.40;99.90;;;;;;5076353;28;20376;-69
2022/11/04 10:30:15;;;;;;;8.05;1.35;;;11.40;99.90;;;;;;5076659;28;20417;-70
2022/11/04 10:32:54;;;;;;;4.38;1.38;;;11.50;99.90;;;;;;5075340;28;20067;-70
2022/11/04 10:35:33;;;;;;;7.55;2.05;;;11.60;99.90;;;;;;5076411;28;20343;-69
2022/11/04 10:38:16;;;;;;;8.10;1.52;;;11.70;99.90;;;;;;5076050;28;20105;-70
2022/11/04 10:40:49;;;;;;;2.38;1.25;;;11.90;99.90;;;;;;5076599;28;20027;-70
2022/11/04 10:43:29;;;;;;;7.50;2.55;;;11.90;99.90;;;;;;5076160;28;20032;-69
2022/11/04 10:46:11;;;;;;;8.25;1.85;;;11.90;99.90;;;;;;5076004;28;20103;-69
2022/11/04 10:49:21;;;;;;;11.57;2.10;;;11.80;99.90;;;;;;5076038;28;20316;-69
2022/11/04 10:51:48;;;;;;;7.88;2.45;;;11.70;99.90;;;;;;5076319;28;20048;-69
2022/11/04 10:54:15;;;;;;;7.47;2.33;;;11.70;99.90;;;;;;5075982;28;20070;-69
2022/11/04 10:56:55;;;;;;;11.70;3.03;;;11.60;99.90;;;;;;5075908;28;20021;-68
2022/11/04 10:59:46;;;;;;;5.15;1.88;;;11.60;99.90;;;;;;5075516;28;20040;-69
2022/11/04 11:02:14;;;;;;;17.15;3.17;;;11.60;99.90;;;;;;5075798;28;20032;-69
2022/11/04 11:04:47;;;;;;;5.60;3.58;;;11.60;99.90;;;;;;5058178;28;20017;-71
2022/11/04 11:07:21;;;;;;;6.88;2.20;;;11.60;99.90;;;;;;5075916;28;20052;-70
2022/11/04 11:09:52;;;;;;;10.13;2.10;;;11.60;99.90;;;;;;5076849;28;20081;-69
2022/11/04 11:12:29;;;;;;;11.13;2.70;;;11.70;99.90;;;;;;5079489;28;20055;-69
2022/11/04 11:14:56;;;;;;;6.47;2.28;;;11.70;99.90;;;;;;5079104;28;20036;-68
2022/11/04 11:17:36;;;;;;;10.80;3.22;;;11.70;99.90;;;;;;5079516;28;20294;-69
2022/11/04 11:20:21;;;;;;;7.32;2.50;;;11.70;99.90;;;;;;5079231;28;20313;-69
2022/11/04 11:22:50;;;;;;;10.18;3.47;;;11.70;99.90;;;;;;5079432;28;20024;-69
2022/11/04 11:25:24;;;;;;;6.18;2.55;;;11.70;99.90;;;;;;5079163;28;20301;-69
2022/11/04 11:28:11;;;;;;;11.05;2.90;;;11.80;99.90;;;;;;5079134;28;20062;-68
2022/11/04 11:30:45;;;;;;;8.88;2.05;;;11.80;99.90;;;;;;5079200;28;20095;-69
2022/11/04 11:33:33;;;;;;;9.48;2.10;;;11.90;99.90;;;;;;5079768;28;20021;-69
2022/11/04 11:36:15;;;;;;;10.45;2.30;;;11.90;99.90;;;;;;5079262;28;20294;-70
2022/11/04 11:39:12;;;;;;;7.25;2.40;;;11.90;99.90;;;;;;5079454;28;20451;-69
2022/11/04 11:41:59;;;;;;;10.93;2.85;;;12.00;99.90;;;;;;5079443;28;20047;-71
2022/11/04 11:44:42;;;;;;;7.30;2.00;;;12.00;99.90;;;;;;5061062;28;20025;-71
2022/11/04 11:47:41;;;;;;;9.95;2.38;;;12.00;99.90;;;;;;5078862;28;20484;-69
2022/11/04 11:50:29;;;;;;;14.95;6.65;;;12.10;99.90;;;;;;5078831;28;20046;-69
2022/11/04 11:53:18;;;;;;;6.97;2.75;;;12.10;99.90;;;;;;5078414;28;20021;-70
2022/11/04 11:56:10;;;;;;;7.22;2.65;;;12.10;99.90;;;;;;5078521;28;20329;-69
2022/11/04 11:59:06;;;;;;;6.57;2.70;;;12.10;99.90;;;;;;5070016;28;20437;-69
2022/11/04 12:01:45;;;;;;;6.40;2.77;;;12.10;99.90;;;;;;5078302;28;20032;-68
2022/11/04 12:04:15;;;;;;;10.43;2.47;;;12.10;99.90;;;;;;5078308;28;20320;-70
2022/11/04 12:07:03;;;;;;;8.65;2.45;;;12.20;99.90;;;;;;5078451;28;20081;-70
2022/11/04 12:09:50;;;;;;;4.82;1.70;;;12.30;99.90;;;;;;5078889;28;20035;-71
2022/11/04 12:12:32;;;;;;;7.50;1.98;;;12.40;99.90;;;;;;5078883;28;20035;-71
2022/11/04 12:15:29;;;;;;;6.28;2.25;;;12.40;99.90;;;;;;5078744;28;20028;-71
2022/11/04 12:18:15;;;;;;;4.63;1.73;;;12.40;99.90;;;;;;5078567;28;20385;-68
2022/11/04 12:21:23;;;;;;;7.97;2.92;;;12.40;99.90;;;;;;5078449;28;20021;-68
2022/11/04 12:23:58;;;;;;;5.82;2.00;;;12.40;99.90;;;;;;5065702;28;20036;-68
2022/11/04 12:26:40;;;;;;;8.10;1.83;;;12.50;99.90;;;;;;5078033;28;20024;-68
2022/11/04 12:29:49;;;;;;;9.02;2.08;;;12.60;99.90;;;;;;5078533;28;20094;-68
2022/11/04 12:32:41;;;;;;;4.93;2.15;;;12.70;99.90;;;;;;5070105;28;20498;-68
2022/11/04 12:35:33;;;;;;;4.30;1.95;;;12.80;99.90;;;;;;5077744;28;20024;-68
2022/11/04 12:38:25;;;;;;;9.95;2.85;;;12.80;99.90;;;;;;5078411;28;20028;-68
2022/11/04 12:41:14;;;;;;;3.65;1.90;;;12.80;99.90;;;;;;5076631;28;20370;-68
2022/11/04 12:44:16;;;;;;;13.45;3.33;;;12.80;99.90;;;;;;5078260;28;20024;-68
2022/11/04 12:47:05;;;;;;;8.40;2.42;;;12.90;99.90;;;;;;5077978;28;20020;-68
2022/11/04 12:49:58;;;;;;;8.07;2.03;;;13.10;99.90;;;;;;5077423;28;20024;-68
2022/11/04 12:53:08;;;;;;;7.25;2.10;;;13.10;99.90;;;;;;5055023;28;20054;-68
2022/11/04 12:55:54;;;;;;;10.60;2.25;;;13.10;99.90;;;;;;5069735;28;20083;-68
2022/11/04 12:58:26;;;;;;;11.63;2.90;;;13.10;99.90;;;;;;5076948;28;20113;-68
2022/11/04 13:01:02;;;;;;;11.57;2.92;;;13.10;99.90;;;;;;5059490;28;20416;-68
2022/11/04 13:03:58;;;;;;;6.50;2.08;;;13.20;99.90;;;;;;5077217;28;20025;-68
2022/11/04 13:06:46;;;;;;;5.20;2.17;;;13.10;99.90;;;;;;5077168;28;20021;-68
2022/11/04 13:09:20;;;;;;;9.98;2.35;;;13.00;99.90;;;;;;5077471;28;20440;-68
2022/11/04 13:12:14;;;;;;;8.05;2.88;;;12.90;99.90;;;;;;5077867;28;20029;-68
2022/11/04 13:15:20;;;;;;;11.18;2.38;;;12.90;99.90;;;;;;5077577;28;20016;-68
2022/11/04 13:17:53;;;;;;;9.30;2.75;;;12.90;99.90;;;;;;5059007;28;20040;-68
2022/11/04 13:20:51;;;;;;;8.95;2.20;;;12.90;99.90;;;;;;5077486;28;20321;-68
2022/11/04 13:24:03;;;;;;;4.63;2.05;;;13.00;99.90;;;;;;5068841;28;20064;-68
2022/11/04 13:26:31;;;;;;;6.18;2.22;;;13.10;99.90;;;;;;5077403;28;20055;-68
2022/11/04 13:29:04;;;;;;;6.78;2.58;;;13.20;99.90;;;;;;5076689;28;20029;-68
2022/11/04 13:31:44;;;;;;;3.97;1.90;;;13.30;99.90;;;;;;5076131;28;20040;-68
2022/11/04 13:34:31;;;;;;;7.30;2.58;;;13.40;99.90;;;;;;5076771;28;20093;-68
2022/11/04 13:37:45;;;;;;;6.90;1.88;;;13.50;99.90;;;;;;5076490;28;20196;-69
2022/11/04 13:40:22;;;;;;;7.20;2.17;;;13.50;99.90;;;;;;5043300;28;20040;-69
2022/11/04 13:45:53;;;;;;;5.45;2.10;;;13.60;99.90;;;;;;5076565;28;20439;-68
2022/11/04 13:48:32;;;;;;;7.50;2.60;;;13.70;99.90;;;;;;5077128;28;20108;-68
2022/11/04 13:51:07;;;;;;;9.05;2.15;;;13.80;99.90;;;;;;5076607;28;20017;-69
2022/11/04 13:53:50;;;;;;;11.85;3.15;;;13.80;99.90;;;;;;5076719;28;20031;-69
2022/11/04 13:56:39;;;;;;;7.55;2.60;;;13.70;99.90;;;;;;5076344;28;20070;-68
2022/11/04 13:59:29;;;;;;;8.45;2.22;;;13.80;99.90;;;;;;5076318;28;20337;-68
2022/11/04 14:02:19;;;;;;;7.93;2.10;;;13.70;99.90;;;;;;5076569;28;20025;-68
2022/11/04 14:04:46;;;;;;;8.48;2.50;;;13.60;99.90;;;;;;5076290;28;20023;-68
2022/11/04 14:07:16;;;;;;;9.77;2.25;;;13.50;99.90;;;;;;5076980;28;20021;-68
2022/11/04 14:09:44;;;;;;;5.40;2.38;;;13.30;99.90;;;;;;5059412;28;20029;-68